Time;durP1;ratioP1;P1;durP2;ratioP2;P2;SDS_P1;SDS_P2;PMS_P1;PMS_P2;Temp;Humidity;BMP_temperature;BMP_pressure;BME280_temperature;BME280_humidity;BME280_pressure;Samples;Min_cycle;Max_cycle;Signal;HPM_P1;HPM_P2
2023/07/05 00:00:36;;;;;;;20.10;18.27;;;14.70;99.90;;;;;;4974998;28;20140;-81
2023/07/05 00:03:03;;;;;;;22.92;21.05;;;14.80;99.90;;;;;;4991023;28;20037;-81
2023/07/05 00:05:28;;;;;;;24.83;19.58;;;14.80;99.90;;;;;;5009076;28;20056;-82
2023/07/05 00:07:54;;;;;;;23.55;19.63;;;14.90;99.90;;;;;;4991183;28;20038;-82
2023/07/05 00:10:20;;;;;;;24.08;21.77;;;14.90;99.90;;;;;;4974123;28;20058;-82
2023/07/05 00:12:46;;;;;;;22.73;20.42;;;15.20;99.90;;;;;;4991553;28;20056;-81
2023/07/05 00:15:15;;;;;;;21.27;18.85;;;15.10;99.90;;;;;;4991233;28;20030;-82
2023/07/05 00:17:41;;;;;;;23.75;21.63;;;14.90;99.90;;;;;;5008642;28;20076;-82
2023/07/05 00:20:07;;;;;;;17.13;15.43;;;14.90;99.90;;;;;;4974907;28;20073;-82
2023/07/05 00:22:33;;;;;;;16.52;14.50;;;14.80;99.90;;;;;;4975304;28;20185;-82
2023/07/05 00:25:01;;;;;;;15.85;13.60;;;14.80;99.90;;;;;;5008353;28;20512;-82
2023/07/05 00:27:27;;;;;;;16.35;14.73;;;15.10;99.90;;;;;;4974853;28;20073;-82
2023/07/05 00:29:53;;;;;;;18.33;15.65;;;14.90;99.90;;;;;;4991220;28;20069;-82
2023/07/05 00:32:19;;;;;;;19.17;17.27;;;14.80;99.90;;;;;;4991095;28;20124;-82
2023/07/05 00:34:46;;;;;;;19.40;15.98;;;15.00;99.90;;;;;;4974373;28;20042;-82
2023/07/05 00:37:11;;;;;;;15.55;11.27;;;14.90;99.90;;;;;;4990814;28;20480;-82
2023/07/05 00:39:40;;;;;;;15.75;14.00;;;14.80;99.90;;;;;;4975195;28;20493;-82
2023/07/05 00:42:06;;;;;;;20.23;14.07;;;14.80;99.90;;;;;;5012046;28;20037;-82
2023/07/05 00:44:32;;;;;;;18.67;16.27;;;14.80;99.90;;;;;;4978102;28;20512;-82
2023/07/05 00:47:13;;;;;;;20.38;15.93;;;14.80;99.90;;;;;;4977925;28;20046;-82
2023/07/05 00:49:39;;;;;;;17.83;16.15;;;14.80;99.90;;;;;;4978099;28;20045;-82
2023/07/05 00:52:13;;;;;;;17.63;15.80;;;14.80;99.90;;;;;;4994463;28;20077;-82
2023/07/05 00:54:53;;;;;;;20.63;18.65;;;14.70;99.90;;;;;;4977408;28;20269;-82
2023/07/05 00:57:29;;;;;;;18.95;12.75;;;14.70;99.90;;;;;;4978413;28;20070;-82
2023/07/05 01:00:23;;;;;;;21.92;19.20;;;14.70;99.90;;;;;;4978162;28;20048;-83
2023/07/05 01:02:54;;;;;;;;;;;14.70;99.90;;;;;;4976303;28;20522;-82
2023/07/05 01:05:20;;;;;;;21.85;19.40;;;14.70;99.90;;;;;;4993994;28;19957;-83
2023/07/05 01:07:47;;;;;;;21.58;18.25;;;14.70;99.90;;;;;;4993504;28;20081;-83
2023/07/05 01:10:24;;;;;;;20.75;17.92;;;14.60;99.90;;;;;;4993940;28;20152;-82
2023/07/05 01:13:21;;;;;;;22.27;15.88;;;14.70;99.90;;;;;;4994244;28;20180;-83
2023/07/05 01:16:06;;;;;;;17.35;15.57;;;14.70;99.90;;;;;;5010341;28;20049;-82
2023/07/05 01:18:40;;;;;;;18.98;17.05;;;14.70;99.90;;;;;;5011454;28;20133;-83
2023/07/05 01:21:14;;;;;;;23.50;18.33;;;14.70;99.90;;;;;;4977974;28;20041;-83
2023/07/05 01:24:09;;;;;;;21.27;16.88;;;14.70;99.90;;;;;;4977544;28;20041;-82
2023/07/05 01:27:09;;;;;;;25.05;19.85;;;14.70;99.90;;;;;;4977168;28;20037;-83
2023/07/05 01:29:53;;;;;;;29.60;20.70;;;14.70;99.90;;;;;;4977607;28;20053;-83
2023/07/05 01:32:39;;;;;;;29.60;25.55;;;14.70;99.90;;;;;;5010858;28;20046;-83
2023/07/05 01:35:23;;;;;;;28.73;21.45;;;14.60;99.90;;;;;;4977356;28;20050;-83
2023/07/05 01:37:51;;;;;;;32.35;25.95;;;14.60;99.90;;;;;;4976529;28;20041;-83
2023/07/05 01:40:23;;;;;;;36.00;32.45;;;14.60;99.90;;;;;;4993189;28;20141;-83
2023/07/05 01:42:54;;;;;;;32.83;26.55;;;14.60;99.90;;;;;;4993424;28;20227;-83
2023/07/05 01:45:30;;;;;;;32.38;27.02;;;14.60;99.90;;;;;;4993163;28;20045;-83
2023/07/05 01:48:16;;;;;;;36.92;33.25;;;14.60;99.90;;;;;;4976825;28;20046;-82
2023/07/05 01:50:49;;;;;;;31.02;27.38;;;14.60;99.90;;;;;;4976331;28;20048;-82
2023/07/05 01:53:32;;;;;;;;;;;14.60;99.90;;;;;;4976736;28;20033;-82
2023/07/05 01:56:23;;;;;;;47.55;32.65;;;14.50;99.90;;;;;;4976650;28;19921;-82
2023/07/05 01:58:57;;;;;;;53.10;48.40;;;14.40;99.90;;;;;;4969597;28;20189;-82
2023/07/05 02:01:25;;;;;;;53.28;48.08;;;14.30;99.90;;;;;;4976997;28;20413;-82
2023/07/05 02:03:52;;;;;;;64.70;58.75;;;14.30;99.90;;;;;;5010360;28;20045;-82
2023/07/05 02:06:20;;;;;;;52.45;47.10;;;14.20;99.90;;;;;;4992259;28;20042;-82
2023/07/05 02:08:50;;;;;;;57.70;52.20;;;14.20;99.90;;;;;;5010017;28;20112;-82
2023/07/05 02:11:16;;;;;;;59.28;53.53;;;14.20;99.90;;;;;;4991889;28;20123;-82
2023/07/05 02:13:42;;;;;;;57.25;51.35;;;14.10;99.90;;;;;;4975437;28;20033;-82
2023/07/05 02:16:07;;;;;;;50.08;40.33;;;14.10;99.90;;;;;;4992514;28;20042;-83
2023/07/05 02:18:33;;;;;;;51.70;46.72;;;14.10;99.90;;;;;;4992615;28;20050;-83
2023/07/05 02:20:59;;;;;;;54.67;49.30;;;14.10;99.90;;;;;;4975534;28;20038;-83
2023/07/05 02:23:25;;;;;;;85.20;77.40;;;14.10;99.90;;;;;;4983774;28;20109;-82
2023/07/05 02:25:51;;;;;;;39.15;35.20;;;14.10;99.90;;;;;;4976135;28;20137;-81
2023/07/05 02:28:17;;;;;;;48.97;42.67;;;14.30;99.90;;;;;;4976172;28;20038;-82
2023/07/05 02:30:43;;;;;;;45.88;34.17;;;14.10;99.90;;;;;;4992146;28;20092;-82
2023/07/05 02:33:09;;;;;;;40.45;35.60;;;14.00;99.90;;;;;;4976022;28;20475;-81
2023/07/05 02:35:36;;;;;;;39.92;33.22;;;14.10;99.90;;;;;;5009190;28;20034;-82
2023/07/05 02:38:02;;;;;;;40.03;31.67;;;14.00;99.90;;;;;;4992129;28;20065;-81
2023/07/05 02:40:28;;;;;;;51.75;41.85;;;14.00;99.90;;;;;;4975639;28;20045;-82
2023/07/05 02:42:54;;;;;;;48.08;43.08;;;14.00;99.90;;;;;;4975503;28;20033;-83
2023/07/05 02:45:20;;;;;;;75.45;68.22;;;14.10;99.90;;;;;;4992257;28;20042;-83
2023/07/05 02:47:46;;;;;;;60.40;54.78;;;14.10;99.90;;;;;;4992162;28;20481;-84
2023/07/05 02:50:14;;;;;;;39.40;35.53;;;14.00;99.90;;;;;;4975358;28;20037;-84
2023/07/05 02:52:41;;;;;;;55.95;50.33;;;14.00;99.90;;;;;;4975495;28;20049;-84
2023/07/05 02:55:07;;;;;;;71.05;64.63;;;14.00;99.90;;;;;;4992171;28;20037;-85
2023/07/05 02:57:32;;;;;;;100.07;91.72;;;14.00;99.90;;;;;;4976024;28;20097;-85
2023/07/05 02:59:58;;;;;;;82.65;75.82;;;14.00;99.90;;;;;;4975977;28;20097;-84
2023/07/05 03:02:24;;;;;;;76.63;69.43;;;14.00;99.90;;;;;;4992060;28;20057;-85
2023/07/05 03:04:53;;;;;;;71.68;65.03;;;14.00;99.90;;;;;;4975403;28;20408;-85
2023/07/05 03:07:21;;;;;;;57.45;51.60;;;14.10;99.90;;;;;;4992106;28;20046;-84
2023/07/05 03:09:48;;;;;;;46.50;38.38;;;14.10;99.90;;;;;;4991634;28;20045;-85
2023/07/05 03:12:17;;;;;;;98.63;88.97;;;14.10;99.90;;;;;;4992057;28;20133;-88
2023/07/05 03:14:43;;;;;;;96.35;86.32;;;14.10;99.90;;;;;;4993861;28;20044;-88
2023/07/05 03:17:08;;;;;;;60.90;54.72;;;14.10;99.90;;;;;;4977577;28;20041;-88
2023/07/05 03:19:34;;;;;;;70.07;62.95;;;14.10;99.90;;;;;;4976686;28;20046;-90
2023/07/05 03:22:00;;;;;;;96.57;87.85;;;14.10;99.90;;;;;;4977403;28;20029;-88
2023/07/05 03:24:26;;;;;;;70.10;63.33;;;14.00;99.90;;;;;;4976653;28;20042;-86
2023/07/05 03:26:52;;;;;;;94.72;86.43;;;14.20;99.90;;;;;;4992905;28;20038;-87
2023/07/05 03:29:18;;;;;;;65.80;59.47;;;14.00;99.90;;;;;;5010369;28;20455;-87
2023/07/05 03:31:43;;;;;;;102.32;93.78;;;14.00;99.90;;;;;;4992184;28;20515;-87
2023/07/05 03:34:09;;;;;;;75.55;68.20;;;14.10;99.90;;;;;;4975841;28;20105;-87
2023/07/05 03:36:35;;;;;;;87.38;78.63;;;14.00;99.90;;;;;;4975821;28;20057;-86
2023/07/05 03:39:01;;;;;;;92.75;84.18;;;14.10;99.90;;;;;;4975563;28;20193;-87
2023/07/05 03:41:29;;;;;;;84.50;76.45;;;14.10;99.90;;;;;;4976002;28;20041;-87
2023/07/05 03:43:58;;;;;;;134.45;121.85;;;14.00;99.90;;;;;;4975671;28;20589;-87
2023/07/05 03:46:24;;;;;;;121.40;110.20;;;14.10;99.90;;;;;;5009625;28;20070;-86
2023/07/05 03:48:50;;;;;;;130.57;119.85;;;14.10;99.90;;;;;;4991593;28;20488;-87
2023/07/05 03:51:19;;;;;;;99.97;91.10;;;14.10;99.90;;;;;;4992776;28;20524;-88
2023/07/05 03:53:52;;;;;;;110.35;101.00;;;14.20;99.90;;;;;;4976321;28;20405;-87
2023/07/05 03:56:18;;;;;;;117.40;106.57;;;14.20;99.90;;;;;;4976639;28;20116;-89
2023/07/05 03:59:09;;;;;;;128.65;118.15;;;14.60;99.90;;;;;;4981412;28;20034;-88
2023/07/05 04:01:34;;;;;;;132.40;120.40;;;14.20;99.90;;;;;;4976465;28;20053;-87
2023/07/05 04:04:21;;;;;;;115.50;105.68;;;14.30;99.90;;;;;;5011132;28;20177;-87
2023/07/05 04:06:47;;;;;;;110.38;101.30;;;14.40;99.90;;;;;;4975581;28;20046;-88
2023/07/05 04:09:13;;;;;;;88.28;80.97;;;14.40;99.90;;;;;;4992694;28;20046;-87
2023/07/05 04:11:39;;;;;;;129.30;119.22;;;14.40;99.90;;;;;;4971967;28;20065;-88
2023/07/05 04:14:05;;;;;;;138.38;128.02;;;14.40;99.90;;;;;;4972768;28;20039;-88
2023/07/05 04:16:30;;;;;;;97.10;89.68;;;14.50;99.90;;;;;;4992851;28;20281;-87
2023/07/05 04:18:57;;;;;;;116.40;107.43;;;14.50;99.90;;;;;;4976672;28;20101;-88
2023/07/05 04:21:24;;;;;;;70.75;64.53;;;14.50;99.90;;;;;;4992272;28;20049;-88
2023/07/05 04:23:50;;;;;;;84.38;77.35;;;14.60;99.90;;;;;;4975947;28;20053;-87
2023/07/05 04:26:19;;;;;;;107.78;99.60;;;14.60;99.90;;;;;;4993424;28;20038;-86
2023/07/05 04:28:45;;;;;;;102.15;93.10;;;14.60;99.90;;;;;;4992572;28;20052;-88
2023/07/05 04:31:24;;;;;;;89.40;81.80;;;14.70;99.90;;;;;;4991583;28;20044;-87
2023/07/05 04:33:53;;;;;;;87.68;80.20;;;14.80;99.90;;;;;;4976075;28;20046;-88
2023/07/05 04:36:24;;;;;;;77.45;70.82;;;14.70;99.90;;;;;;4992891;28;20400;-87
2023/07/05 04:38:50;;;;;;;91.82;84.55;;;14.80;99.90;;;;;;4993560;28;20050;-87
2023/07/05 04:41:16;;;;;;;54.90;49.97;;;14.80;99.90;;;;;;4991746;28;20050;-87
2023/07/05 04:43:42;;;;;;;87.20;80.90;;;14.80;99.90;;;;;;4975706;28;20066;-86
2023/07/05 04:46:08;;;;;;;108.40;100.13;;;14.80;99.90;;;;;;4974896;28;20089;-86
2023/07/05 04:48:33;;;;;;;92.55;85.28;;;14.80;99.90;;;;;;4991650;28;20042;-87
2023/07/05 04:50:59;;;;;;;106.90;99.13;;;14.80;99.90;;;;;;4975929;28;20401;-88
2023/07/05 04:53:27;;;;;;;57.10;52.53;;;14.80;99.90;;;;;;4975671;28;20053;-87
2023/07/05 04:55:55;;;;;;;65.65;60.60;;;14.80;99.90;;;;;;4977307;28;20038;-87
2023/07/05 04:58:22;;;;;;;62.95;58.03;;;14.80;99.90;;;;;;4975770;28;20412;-87
2023/07/05 05:00:51;;;;;;;83.60;77.80;;;14.80;99.90;;;;;;4992659;28;20172;-87
2023/07/05 05:03:19;;;;;;;60.35;55.92;;;14.80;99.90;;;;;;4991986;28;20049;-88
2023/07/05 05:05:47;;;;;;;28.92;26.15;;;14.90;99.90;;;;;;4976191;28;20049;-87
2023/07/05 05:08:13;;;;;;;16.95;14.63;;;14.80;99.90;;;;;;4976949;28;20042;-88
2023/07/05 05:10:39;;;;;;;21.10;17.27;;;14.80;99.90;;;;;;4976635;28;20126;-88
2023/07/05 05:13:07;;;;;;;19.17;17.23;;;14.60;99.90;;;;;;5101006;23;20071;-96
2023/07/05 05:15:40;;;;;;;18.38;15.55;;;14.60;99.90;;;;;;4942881;28;20049;-93
2023/07/05 05:18:09;;;;;;;17.05;15.30;;;14.50;99.90;;;;;;4941918;28;20050;-96
2023/07/05 05:20:38;;;;;;;18.65;16.77;;;14.50;99.90;;;;;;4957572;28;20047;-95
2023/07/05 05:23:04;;;;;;;16.73;15.02;;;14.50;99.90;;;;;;4941692;28;20078;-94
2023/07/05 05:25:30;;;;;;;17.38;15.93;;;14.50;99.90;;;;;;4956464;28;20231;-95
2023/07/05 05:27:56;;;;;;;19.27;17.58;;;15.00;99.90;;;;;;4941379;28;20362;-94
2023/07/05 05:30:22;;;;;;;15.55;13.95;;;15.30;99.90;;;;;;4941486;28;20051;-94
2023/07/05 05:32:52;;;;;;;15.52;14.02;;;15.00;99.90;;;;;;4945465;28;20078;-94
2023/07/05 05:35:36;;;;;;;17.15;14.60;;;15.50;99.90;;;;;;4964370;28;20043;-96
2023/07/05 05:38:04;;;;;;;;;;;16.20;99.90;;;;;;4943623;28;20039;-96
2023/07/05 05:40:50;;;;;;;354.38;48.67;;;16.90;99.90;;;;;;4956877;28;19918;-96
2023/07/05 05:43:27;;;;;;;20.40;18.13;;;17.90;99.90;;;;;;4941507;28;20409;-95
2023/07/05 05:45:56;;;;;;;22.98;8.60;;;18.00;99.90;;;;;;4973058;28;20050;-96
2023/07/05 05:48:31;;;;;;;10.98;6.35;;;18.20;99.90;;;;;;5006450;28;20307;-95
2023/07/05 06:27:47;;;;;;;11.40;10.40;;;15.50;99.90;;;;;;4976322;28;20051;-95
2023/07/05 06:30:16;;;;;;;13.15;10.48;;;15.70;99.90;;;;;;4941030;28;20062;-96
2023/07/05 06:33:01;;;;;;;12.90;11.60;;;16.10;99.90;;;;;;4956624;28;20073;-95
2023/07/05 06:36:22;;;;;;;12.18;8.38;;;16.50;99.90;;;;;;4957881;28;20137;-94
2023/07/05 06:39:20;;;;;;;10.25;6.97;;;17.20;99.90;;;;;;4939157;28;20058;-95
2023/07/05 06:41:55;;;;;;;8.38;7.45;;;18.20;99.90;;;;;;4951318;28;20039;-95
2023/07/05 06:44:21;;;;;;;7.65;6.63;;;18.00;99.90;;;;;;4968739;28;20034;-94
2023/07/05 06:46:47;;;;;;;11.82;8.23;;;17.60;99.90;;;;;;4980235;28;20043;-93
2023/07/05 06:49:25;;;;;;;10.32;9.05;;;17.20;99.90;;;;;;4975956;28;20047;-94
2023/07/05 06:51:57;;;;;;;11.30;9.23;;;16.90;99.90;;;;;;4956772;28;20079;-96
2023/07/05 06:54:22;;;;;;;10.70;9.70;;;16.80;99.90;;;;;;4937150;29;20047;-93
2023/07/05 06:57:00;;;;;;;10.95;9.35;;;16.70;99.90;;;;;;4938287;28;20039;-95
2023/07/05 06:59:32;;;;;;;11.15;10.15;;;16.60;99.90;;;;;;4939936;28;20043;-96
2023/07/05 07:02:01;;;;;;;11.52;10.63;;;16.80;99.90;;;;;;4956754;28;20046;-95
2023/07/05 07:04:37;;;;;;;12.98;11.68;;;17.80;99.90;;;;;;4940140;28;20038;-95
2023/07/05 07:07:03;;;;;;;9.73;8.30;;;18.10;99.90;;;;;;4940227;28;20389;-96
2023/07/05 07:10:02;;;;;;;12.68;11.45;;;17.70;99.90;;;;;;4942382;28;20545;-96
2023/07/05 07:12:28;;;;;;;44.78;40.25;;;17.20;99.90;;;;;;4937686;28;20358;-92
2023/07/05 07:14:54;;;;;;;11.57;10.40;;;17.30;99.90;;;;;;4942481;28;20489;-93
2023/07/05 07:17:20;;;;;;;12.50;11.43;;;17.00;99.90;;;;;;4964214;28;20069;-91
2023/07/05 07:19:46;;;;;;;10.75;9.75;;;17.00;99.90;;;;;;4973821;28;20093;-94
2023/07/05 07:22:11;;;;;;;13.65;12.55;;;17.10;99.90;;;;;;4974725;28;20062;-93
2023/07/05 07:24:37;;;;;;;12.85;11.85;;;17.00;99.90;;;;;;4981451;28;20047;-93
2023/07/05 07:27:04;;;;;;;11.32;10.23;;;16.80;99.90;;;;;;4940982;28;20053;-94
2023/07/05 07:29:36;;;;;;;16.00;14.38;;;16.60;99.90;;;;;;4956227;28;20085;-95
2023/07/05 07:32:14;;;;;;;11.85;10.85;;;16.50;99.90;;;;;;4940861;28;20043;-95
2023/07/05 07:34:40;;;;;;;8.63;7.72;;;16.40;99.90;;;;;;4940534;28;20524;-93
2023/07/05 07:37:09;;;;;;;10.98;10.02;;;16.70;99.90;;;;;;4950131;28;20043;-94
2023/07/05 07:39:35;;;;;;;11.88;10.95;;;16.80;99.90;;;;;;4942613;28;20049;-95
2023/07/05 07:42:04;;;;;;;12.20;11.20;;;16.80;99.90;;;;;;4939678;28;20102;-95
2023/07/05 07:44:32;;;;;;;15.98;14.63;;;16.80;99.90;;;;;;4939838;28;20142;-96
2023/07/05 07:47:01;;;;;;;8.98;8.18;;;16.60;99.90;;;;;;4971669;28;20130;-95
2023/07/05 07:49:27;;;;;;;14.90;13.82;;;16.40;99.90;;;;;;4957117;28;20081;-94
2023/07/05 07:51:52;;;;;;;11.32;10.10;;;16.10;99.90;;;;;;4959084;28;20030;-93
2023/07/05 07:54:26;;;;;;;11.43;10.43;;;16.10;99.90;;;;;;4942626;28;20478;-93
2023/07/05 07:56:53;;;;;;;11.65;10.27;;;15.90;99.90;;;;;;4958949;28;20043;-92
2023/07/05 07:59:21;;;;;;;9.43;8.55;;;15.70;99.90;;;;;;4943150;28;20049;-91
2023/07/05 08:01:47;;;;;;;13.68;12.70;;;15.50;99.90;;;;;;4941999;28;20070;-90
2023/07/05 08:04:16;;;;;;;10.13;9.32;;;15.30;99.90;;;;;;4942237;28;20464;-91
2023/07/05 08:06:51;;;;;;;11.25;10.35;;;15.00;99.90;;;;;;4942886;28;20476;-90
2023/07/05 08:09:23;;;;;;;11.65;10.77;;;14.50;99.90;;;;;;4957915;28;20042;-89
2023/07/05 08:11:51;;;;;;;16.02;14.85;;;14.50;99.90;;;;;;4942664;28;20066;-90
2023/07/05 08:14:18;;;;;;;8.27;7.65;;;14.30;99.90;;;;;;4942610;28;20046;-92
2023/07/05 08:16:44;;;;;;;8.63;8.02;;;14.20;99.90;;;;;;4942542;28;20054;-92
2023/07/05 08:19:11;;;;;;;12.02;11.18;;;14.10;99.90;;;;;;4942535;28;20035;-89
2023/07/05 08:21:37;;;;;;;5.85;5.28;;;14.00;99.90;;;;;;4941713;28;20035;-89
2023/07/05 08:24:04;;;;;;;6.38;5.63;;;13.90;99.90;;;;;;4957723;28;20129;-90
2023/07/05 08:26:29;;;;;;;9.85;8.95;;;13.90;99.90;;;;;;4942254;28;20046;-90
2023/07/05 08:28:57;;;;;;;6.82;5.90;;;13.70;99.90;;;;;;4943903;28;20046;-91
2023/07/05 08:31:23;;;;;;;13.90;12.73;;;13.60;99.90;;;;;;4945665;28;20054;-91
2023/07/05 08:33:52;;;;;;;8.43;7.72;;;13.60;99.90;;;;;;4960716;28;20050;-89
2023/07/05 08:36:35;;;;;;;7.32;6.72;;;13.50;99.90;;;;;;4958403;28;20528;-90
2023/07/05 08:39:03;;;;;;;18.10;16.58;;;13.50;99.90;;;;;;4957867;28;20053;-93
2023/07/05 08:41:37;;;;;;;10.07;9.23;;;13.40;99.90;;;;;;4942011;28;20035;-91
2023/07/05 08:44:32;;;;;;;6.65;6.05;;;13.40;99.90;;;;;;4990635;28;20043;-90
2023/07/05 08:47:24;;;;;;;23.83;21.90;;;13.30;99.90;;;;;;4942014;28;20371;-90
2023/07/05 08:50:05;;;;;;;10.80;9.93;;;13.20;99.90;;;;;;4958288;28;20228;-90
2023/07/05 08:52:44;;;;;;;67.75;61.90;;;13.20;99.90;;;;;;4977018;28;20074;-95
2023/07/05 08:55:18;;;;;;;7.75;7.10;;;13.00;99.90;;;;;;4944143;28;20046;-96
2023/07/05 08:58:00;;;;;;;34.92;32.17;;;13.00;99.90;;;;;;4959541;28;20117;-89
2023/07/05 09:00:33;;;;;;;12.18;10.85;;;13.00;99.90;;;;;;4941822;28;20047;-91
2023/07/05 09:02:58;;;;;;;25.05;23.40;;;12.90;99.90;;;;;;4957811;28;20039;-92
2023/07/05 09:05:35;;;;;;;43.58;40.33;;;12.90;99.90;;;;;;4942326;28;20109;-91
2023/07/05 09:08:14;;;;;;;15.70;14.60;;;12.80;99.90;;;;;;4941430;28;20070;-90
2023/07/05 09:10:51;;;;;;;56.05;51.58;;;12.80;99.90;;;;;;4941363;28;20066;-90
2023/07/05 09:13:39;;;;;;;25.90;23.95;;;12.80;99.90;;;;;;4941267;28;20440;-89
2023/07/05 09:16:16;;;;;;;18.98;17.48;;;13.10;99.90;;;;;;4941113;28;20066;-90
2023/07/05 09:19:09;;;;;;;31.92;29.65;;;12.80;99.90;;;;;;4973427;28;20047;-89
2023/07/05 09:21:41;;;;;;;127.07;116.25;;;12.90;99.90;;;;;;4936042;28;20050;-89
2023/07/05 09:24:13;;;;;;;14.50;13.35;;;12.90;99.90;;;;;;4943094;28;20133;-89
2023/07/05 09:26:49;;;;;;;39.45;36.50;;;13.10;99.90;;;;;;4959073;28;20145;-91
2023/07/05 09:29:21;;;;;;;23.75;21.60;;;13.40;99.90;;;;;;4946481;28;20062;-89
2023/07/05 09:31:51;;;;;;;26.88;24.90;;;13.60;99.90;;;;;;4942989;28;20504;-90
2023/07/05 09:34:51;;;;;;;10.68;9.65;;;13.60;99.90;;;;;;4950407;28;20047;-93
2023/07/05 09:37:23;;;;;;;12.65;10.73;;;13.60;99.90;;;;;;4932674;28;20053;-91
2023/07/05 09:39:54;;;;;;;14.02;12.25;;;13.60;99.90;;;;;;4973584;28;20039;-94
2023/07/05 09:42:34;;;;;;;14.65;11.52;;;13.60;99.90;;;;;;4972805;28;20049;-91
2023/07/05 09:45:00;;;;;;;13.98;9.77;;;13.70;99.90;;;;;;4956797;28;20414;-90
2023/07/05 09:47:26;;;;;;;23.35;19.17;;;13.90;99.90;;;;;;4972372;28;20042;-90
2023/07/05 09:49:52;;;;;;;23.05;20.70;;;14.20;99.90;;;;;;4972222;28;20564;-90
2023/07/05 09:52:23;;;;;;;10.18;7.75;;;14.40;99.90;;;;;;4940152;28;20043;-90
2023/07/05 09:54:59;;;;;;;10.52;6.32;;;14.40;99.90;;;;;;4940266;28;20501;-90
2023/07/05 09:57:25;;;;;;;11.88;6.47;;;14.70;99.90;;;;;;4940767;28;20528;-89
2023/07/05 09:59:52;;;;;;;11.27;5.28;;;14.90;99.90;;;;;;4956045;28;20054;-91
2023/07/05 10:02:31;;;;;;;10.13;5.10;;;15.10;99.90;;;;;;4956067;28;20039;-91
2023/07/05 10:05:13;;;;;;;11.95;4.75;;;15.30;99.90;;;;;;4940072;28;20090;-91
2023/07/05 10:08:01;;;;;;;9.95;6.70;;;15.50;99.90;;;;;;4956653;28;20057;-90
2023/07/05 10:10:33;;;;;;;12.23;7.72;;;15.90;99.90;;;;;;4940144;28;20046;-90
2023/07/05 10:13:12;;;;;;;13.63;6.85;;;16.10;99.90;;;;;;4939609;28;20148;-89
2023/07/05 10:15:44;;;;;;;8.38;7.57;;;16.30;99.90;;;;;;4988438;28;20492;-89
2023/07/05 10:18:43;;;;;;;11.07;7.85;;;16.50;99.90;;;;;;4944596;28;20043;-90
2023/07/05 10:21:21;;;;;;;8.05;5.07;;;16.70;99.90;;;;;;4919695;28;20047;-91
2023/07/05 10:23:48;;;;;;;7.65;6.32;;;16.80;99.90;;;;;;4968552;28;20058;-90
2023/07/05 10:26:20;;;;;;;9.68;6.80;;;16.80;99.90;;;;;;4969342;28;20088;-89
2023/07/05 10:28:54;;;;;;;6.72;5.03;;;16.70;99.90;;;;;;4968386;28;20046;-91
2023/07/05 10:31:30;;;;;;;8.73;4.75;;;16.70;99.90;;;;;;4968469;28;20236;-91
2023/07/05 10:34:15;;;;;;;8.60;6.82;;;16.80;99.90;;;;;;4933005;29;20050;-89
2023/07/05 10:36:45;;;;;;;8.30;5.78;;;16.90;99.90;;;;;;4933318;29;20076;-91
2023/07/05 10:39:17;;;;;;;6.78;4.78;;;17.00;99.90;;;;;;4917095;29;20047;-91
2023/07/05 10:41:43;;;;;;;12.15;6.70;;;17.00;99.90;;;;;;4934596;29;20054;-88
2023/07/05 10:44:24;;;;;;;51.67;31.70;;;17.10;99.90;;;;;;4935918;29;20044;-91
2023/07/05 10:46:50;;;;;;;12.90;7.60;;;17.20;99.90;;;;;;4951460;29;20043;-88
2023/07/05 10:49:19;;;;;;;8.70;7.40;;;17.50;99.90;;;;;;4935739;29;20047;-90
2023/07/05 10:52:03;;;;;;;10.05;6.85;;;17.80;99.90;;;;;;4935771;29;20449;-90
2023/07/05 10:54:42;;;;;;;6.00;4.28;;;18.30;99.90;;;;;;4935847;29;20058;-90
2023/07/05 10:57:23;;;;;;;10.75;7.43;;;18.70;99.90;;;;;;4935801;29;20043;-89
2023/07/05 11:00:14;;;;;;;6.25;4.40;;;18.90;99.90;;;;;;4935955;29;20039;-89
2023/07/05 11:02:55;;;;;;;7.45;4.53;;;18.80;99.90;;;;;;4935047;29;20075;-90
2023/07/05 11:05:32;;;;;;;15.82;9.00;;;18.70;99.90;;;;;;4951700;28;20062;-89
2023/07/05 11:08:01;;;;;;;12.60;5.13;;;18.50;99.90;;;;;;4968278;28;20458;-88
2023/07/05 11:10:29;;;;;;;8.15;5.03;;;18.50;99.90;;;;;;4967899;28;20043;-89
2023/07/05 11:12:55;;;;;;;9.25;6.47;;;18.70;99.90;;;;;;4952035;28;20043;-90
2023/07/05 11:15:22;;;;;;;8.45;5.72;;;18.80;99.90;;;;;;4938733;29;20561;-89
2023/07/05 11:17:51;;;;;;;8.48;4.53;;;19.00;99.90;;;;;;4935384;29;20050;-90
2023/07/05 11:20:36;;;;;;;11.00;5.20;;;19.10;99.90;;;;;;4935376;29;20039;-90
2023/07/05 11:23:02;;;;;;;6.60;3.50;;;19.40;99.90;;;;;;4934645;28;20066;-89
2023/07/05 11:25:52;;;;;;;15.35;7.10;;;19.50;99.90;;;;;;4935201;29;20047;-89
2023/07/05 11:28:33;;;;;;;14.15;7.68;;;19.40;99.90;;;;;;4950965;29;20047;-90
2023/07/05 11:30:59;;;;;;;9.20;7.53;;;19.30;99.90;;;;;;4935649;29;20093;-90
2023/07/05 11:33:25;;;;;;;8.82;5.47;;;19.40;99.90;;;;;;4950772;29;20079;-89
2023/07/05 11:35:56;;;;;;;9.45;6.45;;;19.50;99.90;;;;;;4952210;29;20045;-87
2023/07/05 11:38:40;;;;;;;6.95;6.05;;;19.80;99.90;;;;;;4936902;29;20372;-88
2023/07/05 11:41:07;;;;;;;8.13;5.95;;;20.00;99.90;;;;;;4937774;29;20043;-92
2023/07/05 11:43:55;;;;;;;11.15;5.35;;;20.00;99.90;;;;;;4970700;28;20039;-91
2023/07/05 11:46:32;;;;;;;10.60;6.35;;;20.00;99.90;;;;;;4967998;28;20039;-90
2023/07/05 11:49:19;;;;;;;9.75;6.70;;;19.90;99.90;;;;;;4951295;29;20126;-90
2023/07/05 11:51:47;;;;;;;11.95;7.40;;;19.70;99.90;;;;;;4935203;29;20490;-89
2023/07/05 11:54:18;;;;;;;12.65;5.75;;;19.60;99.90;;;;;;4950977;28;20050;-90
2023/07/05 11:56:51;;;;;;;8.93;7.15;;;19.60;99.90;;;;;;4967032;28;20042;-89
2023/07/05 11:59:19;;;;;;;8.32;6.03;;;19.70;99.90;;;;;;4966968;28;20043;-90
2023/07/05 12:01:46;;;;;;;12.18;6.93;;;19.80;99.90;;;;;;4951582;28;20043;-90
2023/07/05 12:04:23;;;;;;;11.60;6.53;;;19.70;99.90;;;;;;4967065;28;20043;-90
2023/07/05 12:07:02;;;;;;;13.00;8.20;;;19.50;99.90;;;;;;4953117;29;20035;-96
2023/07/05 12:09:36;;;;;;;7.93;6.20;;;19.40;99.90;;;;;;4967790;28;20059;-89
2023/07/05 12:12:06;;;;;;;11.68;7.07;;;19.40;99.90;;;;;;4967959;28;20043;-89
2023/07/05 12:14:32;;;;;;;7.47;6.32;;;18.80;99.90;;;;;;4951219;28;20126;-90
2023/07/05 12:16:58;;;;;;;12.15;6.53;;;18.30;99.90;;;;;;4935844;29;20067;-87
2023/07/05 12:19:30;;;;;;;9.88;8.88;;;17.60;99.90;;;;;;4937119;29;20047;-88
2023/07/05 12:22:04;;;;;;;7.53;6.50;;;17.10;99.90;;;;;;4968026;28;20083;-91
2023/07/05 12:24:42;;;;;;;9.35;8.20;;;16.60;99.90;;;;;;4934113;29;20043;-88
2023/07/05 12:27:35;;;;;;;10.15;9.15;;;16.30;99.90;;;;;;4950510;28;20078;-89
2023/07/05 12:30:05;;;;;;;11.75;10.60;;;16.10;99.90;;;;;;4933556;29;20137;-88
2023/07/05 12:32:31;;;;;;;10.63;9.73;;;16.00;99.90;;;;;;4950063;29;20312;-89
2023/07/05 12:35:25;;;;;;;11.60;10.50;;;15.90;99.90;;;;;;4934758;29;20115;-89
2023/07/05 12:37:53;;;;;;;11.60;10.52;;;15.70;99.90;;;;;;4953100;29;20071;-88
2023/07/05 12:40:32;;;;;;;11.77;10.63;;;15.60;99.90;;;;;;4953181;28;20498;-86
2023/07/05 12:43:04;;;;;;;12.23;11.15;;;15.40;99.90;;;;;;4937593;29;20043;-92
2023/07/05 12:45:34;;;;;;;14.02;12.65;;;15.30;99.90;;;;;;4952859;29;20046;-87
2023/07/05 12:48:36;;;;;;;13.93;12.18;;;15.20;99.90;;;;;;4953018;28;20043;-88
2023/07/05 12:51:23;;;;;;;16.38;14.82;;;15.10;99.90;;;;;;4900688;29;20044;-86
2023/07/05 12:54:09;;;;;;;12.75;11.57;;;15.00;99.90;;;;;;4897239;29;20059;-88
2023/07/05 12:56:41;;;;;;;12.88;11.68;;;15.00;99.90;;;;;;4931732;29;20050;-88
2023/07/05 12:59:15;;;;;;;20.70;18.75;;;15.00;99.90;;;;;;4916169;29;20482;-88
2023/07/05 13:01:45;;;;;;;18.17;15.73;;;15.10;99.90;;;;;;4916748;29;20039;-88
2023/07/05 13:04:17;;;;;;;14.10;12.30;;;15.10;99.90;;;;;;4900186;29;20522;-89
2023/07/05 13:06:48;;;;;;;15.95;14.75;;;15.10;99.90;;;;;;4900727;29;20047;-89
2023/07/05 13:09:30;;;;;;;20.83;18.90;;;15.10;99.90;;;;;;4900987;29;20047;-88
2023/07/05 13:12:05;;;;;;;23.55;21.58;;;15.20;99.90;;;;;;4901342;29;20155;-89
2023/07/05 13:14:34;;;;;;;17.20;15.60;;;15.20;99.90;;;;;;4916897;29;20055;-90
2023/07/05 13:17:16;;;;;;;12.45;11.15;;;15.40;99.90;;;;;;4900789;29;20043;-87
2023/07/05 13:19:55;;;;;;;21.20;19.50;;;15.40;99.90;;;;;;4900612;29;20090;-90
2023/07/05 13:22:22;;;;;;;17.13;15.45;;;15.40;99.90;;;;;;4947767;29;20553;-88
2023/07/05 13:24:52;;;;;;;16.75;14.75;;;15.50;99.90;;;;;;4945558;28;20426;-89
2023/07/05 13:27:45;;;;;;;16.33;14.65;;;15.50;99.90;;;;;;4951586;29;20039;-88
2023/07/05 13:30:21;;;;;;;18.85;17.10;;;15.40;99.90;;;;;;4952788;29;20414;-87
2023/07/05 13:32:51;;;;;;;20.63;17.52;;;15.40;99.90;;;;;;4953057;29;20359;-90